Time;durP1;ratioP1;P1;durP2;ratioP2;P2;SDS_P1;SDS_P2;PMS_P1;PMS_P2;Temp;Humidity;BMP_temperature;BMP_pressure;BME280_temperature;BME280_humidity;BME280_pressure;Samples;Min_cycle;Max_cycle;Signal;HPM_P1;HPM_P2
2021/06/24 00:01:53;;;;;;;24.38;12.85;;;;;;;14.89;76.53;102035.31;5074358;28;20108;-66
2021/06/24 00:04:18;;;;;;;28.05;13.93;;;;;;;14.91;77.08;102040.66;5074159;28;20460;-67
2021/06/24 00:06:44;;;;;;;25.58;13.02;;;;;;;14.84;76.48;102058.38;5073967;28;20467;-67
2021/06/24 00:09:10;;;;;;;25.88;13.35;;;;;;;14.81;76.91;102067.25;5073693;28;20028;-67
2021/06/24 00:11:35;;;;;;;28.30;13.50;;;;;;;14.88;76.60;102069.94;5073604;28;20028;-68
2021/06/24 00:14:01;;;;;;;25.38;13.75;;;;;;;14.82;76.94;102061.03;5074067;28;20379;-68
2021/06/24 00:16:27;;;;;;;25.67;12.88;;;;;;;14.88;76.50;102060.19;5074027;28;20078;-69
2021/06/24 00:18:53;;;;;;;24.75;12.95;;;;;;;14.86;77.16;102067.25;5073626;28;20024;-68
2021/06/24 00:21:19;;;;;;;24.90;13.05;;;;;;;14.85;77.12;102061.94;5073981;28;20430;-69
2021/06/24 00:23:45;;;;;;;26.60;12.93;;;;;;;14.89;77.51;102061.94;5073540;28;20028;-69
2021/06/24 00:26:10;;;;;;;26.55;13.70;;;;;;;14.87;76.92;102074.38;5073458;28;20029;-65
2021/06/24 00:28:36;;;;;;;23.88;12.80;;;;;;;14.86;76.68;102063.72;5072282;28;20360;-65
2021/06/24 00:31:01;;;;;;;26.27;13.15;;;;;;;14.91;76.86;102060.22;5073347;28;20108;-67
2021/06/24 00:33:27;;;;;;;26.23;12.85;;;;;;;14.91;77.04;102072.59;5073424;28;20066;-68
2021/06/24 00:35:53;;;;;;;25.45;13.00;;;;;;;14.90;76.86;102069.06;5073781;28;20033;-69
2021/06/24 00:38:18;;;;;;;25.45;13.32;;;;;;;14.89;76.91;102067.28;5073170;28;20043;-69
2021/06/24 00:40:44;;;;;;;24.38;13.02;;;;;;;14.89;77.17;102066.41;5073234;28;20382;-69
2021/06/24 00:43:12;;;;;;;25.20;13.15;;;;;;;14.87;77.05;102062.81;5073290;28;20099;-67
2021/06/24 00:45:39;;;;;;;25.05;12.75;;;;;;;14.83;77.23;102061.91;5073067;28;20051;-68
2021/06/24 00:48:06;;;;;;;26.15;13.60;;;;;;;14.81;77.83;102053.94;5073023;28;20020;-68
2021/06/24 00:50:32;;;;;;;23.25;12.40;;;;;;;14.81;77.49;102056.59;5073290;28;20029;-68
2021/06/24 00:52:58;;;;;;;24.95;12.80;;;;;;;14.74;77.61;102051.22;5072835;28;20510;-68
2021/06/24 00:55:45;;;;;;;26.00;12.77;;;;;;;14.77;77.35;102046.81;5072984;28;20055;-67
2021/06/24 00:58:10;;;;;;;25.45;12.68;;;;;;;14.73;78.32;102044.13;5071058;28;20021;-65
2021/06/24 01:00:41;;;;;;;25.67;13.27;;;;;;;14.66;77.97;102042.28;5073120;28;20090;-69
2021/06/24 01:03:07;;;;;;;26.23;12.75;;;;;;;14.69;77.77;102037.88;5072768;28;20032;-68
2021/06/24 01:05:34;;;;;;;24.70;12.25;;;;;;;14.64;77.35;102035.19;5072857;28;20021;-68
2021/06/24 01:07:59;;;;;;;26.63;12.60;;;;;;;14.63;77.96;102032.50;5072882;28;20033;-68
2021/06/24 01:10:25;;;;;;;25.65;12.75;;;;;;;14.59;78.08;102036.00;5068522;28;20021;-67
2021/06/24 01:12:50;;;;;;;24.55;12.40;;;;;;;14.61;77.88;102045.81;5072684;28;20040;-68
2021/06/24 01:15:16;;;;;;;25.02;12.05;;;;;;;14.61;77.66;102042.25;5073100;28;20515;-68
2021/06/24 01:17:42;;;;;;;24.45;12.63;;;;;;;14.57;78.37;102041.31;5072186;28;20130;-68
2021/06/24 01:20:08;;;;;;;24.83;12.45;;;;;;;14.57;78.07;102033.31;5072806;28;20111;-66
2021/06/24 01:22:34;;;;;;;25.30;12.90;;;;;;;14.52;78.52;102035.09;5072701;28;20028;-64
2021/06/24 01:24:59;;;;;;;26.73;13.05;;;;;;;14.45;79.06;102025.28;5072626;28;20020;-63
2021/06/24 01:27:25;;;;;;;26.80;12.55;;;;;;;14.53;77.34;102031.53;5068575;28;20081;-63
2021/06/24 01:29:50;;;;;;;27.30;12.35;;;;;;;14.53;78.04;102025.31;5072555;28;20017;-63
2021/06/24 01:32:15;;;;;;;23.58;12.30;;;;;;;14.44;78.69;102027.03;5072525;28;20028;-62
2021/06/24 01:34:42;;;;;;;24.67;12.15;;;;;;;14.36;79.13;102026.09;5072885;28;20047;-62
2021/06/24 01:37:07;;;;;;;25.05;12.32;;;;;;;14.32;78.75;102026.06;5072334;28;20553;-62
2021/06/24 01:39:33;;;;;;;24.05;11.55;;;;;;;14.33;78.85;102009.22;5072609;28;20028;-62
2021/06/24 01:41:59;;;;;;;27.20;12.60;;;;;;;14.37;78.81;102009.28;5072735;28;20060;-62
2021/06/24 01:44:36;;;;;;;25.50;11.98;;;;;;;14.35;78.81;102011.00;5072200;28;20040;-62
2021/06/24 01:47:03;;;;;;;25.63;12.27;;;;;;;14.30;79.01;102013.66;5069177;28;20539;-63
2021/06/24 01:49:30;;;;;;;27.60;11.90;;;;;;;14.26;79.45;102014.50;5072389;28;20025;-62
2021/06/24 01:51:55;;;;;;;26.23;12.15;;;;;;;14.29;78.83;102011.84;5068451;28;20024;-63
2021/06/24 01:54:21;;;;;;;26.63;12.00;;;;;;;14.27;79.83;102010.97;5072180;28;20032;-62
2021/06/24 01:56:47;;;;;;;26.25;12.27;;;;;;;14.29;79.38;102019.84;5072446;28;20088;-62
2021/06/24 01:59:13;;;;;;;25.83;11.60;;;;;;;14.30;79.46;102008.31;5072438;28;20074;-62
2021/06/24 02:01:39;;;;;;;25.40;11.55;;;;;;;14.26;79.77;102003.84;5072104;28;20025;-62
2021/06/24 02:04:04;;;;;;;24.98;11.63;;;;;;;14.28;79.17;102010.09;5072284;28;20040;-63
2021/06/24 02:06:30;;;;;;;24.40;11.43;;;;;;;14.28;79.93;102025.16;5072218;28;20509;-62
2021/06/24 02:08:55;;;;;;;26.50;11.90;;;;;;;14.28;79.12;102015.41;5067893;28;20028;-62
2021/06/24 02:11:21;;;;;;;26.08;12.73;;;;;;;14.26;80.14;102013.63;5072041;28;20028;-63
2021/06/24 02:13:46;;;;;;;25.05;11.45;;;;;;;14.29;79.90;102011.84;5072306;28;20119;-63
2021/06/24 02:16:11;;;;;;;26.63;11.50;;;;;;;14.26;79.95;102010.97;5072273;28;20017;-63
2021/06/24 02:18:37;;;;;;;25.27;11.70;;;;;;;14.28;79.70;102007.44;5072187;28;20068;-63
2021/06/24 02:21:02;;;;;;;26.23;11.90;;;;;;;14.24;79.15;102018.00;5071884;28;20099;-62
2021/06/24 02:23:27;;;;;;;25.38;11.95;;;;;;;14.18;79.80;102018.84;5071957;28;20037;-63
2021/06/24 02:25:53;;;;;;;24.17;11.68;;;;;;;14.23;80.09;102013.59;5072426;28;20020;-62
2021/06/24 02:28:18;;;;;;;25.70;11.98;;;;;;;14.18;79.73;102015.31;5071856;28;20536;-62
2021/06/24 02:30:44;;;;;;;26.38;12.18;;;;;;;14.15;80.38;102016.16;5074438;28;20479;-62
2021/06/24 02:33:10;;;;;;;26.80;12.05;;;;;;;14.22;79.84;102014.47;5076071;28;20021;-63
2021/06/24 02:35:36;;;;;;;25.92;12.38;;;;;;;14.22;79.91;102025.09;5075870;28;20077;-62
2021/06/24 02:38:03;;;;;;;24.27;11.43;;;;;;;14.22;80.14;102015.34;5075474;28;20024;-62
2021/06/24 02:40:29;;;;;;;25.05;11.70;;;;;;;14.20;79.88;102005.56;5074507;28;20111;-62
2021/06/24 02:42:54;;;;;;;30.17;11.95;;;;;;;14.22;80.09;102006.50;5075383;28;20103;-63
2021/06/24 02:45:19;;;;;;;25.55;11.75;;;;;;;14.22;79.20;102003.84;5075390;28;20483;-63
2021/06/24 02:47:45;;;;;;;24.80;12.30;;;;;;;14.17;79.08;102001.13;5075335;28;20033;-63
2021/06/24 02:50:11;;;;;;;26.10;12.07;;;;;;;14.14;79.26;102001.13;5075633;28;20026;-62
2021/06/24 02:52:37;;;;;;;26.33;11.77;;;;;;;14.20;79.40;101997.59;5075572;28;20375;-63
2021/06/24 02:55:04;;;;;;;25.08;12.32;;;;;;;14.13;79.90;102004.66;5075516;28;20021;-62
2021/06/24 02:57:29;;;;;;;23.98;11.25;;;;;;;14.16;79.41;102003.78;5075162;28;20070;-62
2021/06/24 02:59:55;;;;;;;25.23;12.18;;;;;;;14.07;79.57;102001.94;5075363;28;20417;-62
2021/06/24 03:02:20;;;;;;;25.20;12.10;;;;;;;14.13;79.89;101999.34;5075155;28;20075;-62
2021/06/24 03:04:46;;;;;;;25.27;12.30;;;;;;;14.15;79.79;101997.56;5075190;28;20027;-62
2021/06/24 03:07:11;;;;;;;24.40;12.55;;;;;;;14.14;80.04;101995.81;5075282;28;20037;-62
2021/06/24 03:09:37;;;;;;;26.92;12.15;;;;;;;14.15;79.22;102000.22;5073661;28;20032;-62
2021/06/24 03:12:03;;;;;;;25.98;12.18;;;;;;;14.12;79.34;102001.09;5075140;28;20082;-62
2021/06/24 03:14:28;;;;;;;26.10;12.10;;;;;;;14.15;78.80;101996.69;5073018;28;20082;-62
2021/06/24 03:16:53;;;;;;;26.17;12.90;;;;;;;14.08;79.21;101998.38;5075229;28;20063;-62
2021/06/24 03:19:20;;;;;;;26.13;12.55;;;;;;;14.08;79.38;101987.75;5074818;28;20123;-62
2021/06/24 03:21:45;;;;;;;25.88;12.63;;;;;;;14.06;79.54;101997.50;5075287;28;20031;-62
2021/06/24 03:24:11;;;;;;;29.92;12.77;;;;;;;13.98;80.25;102000.09;5074692;28;20025;-63
2021/06/24 03:26:36;;;;;;;26.10;12.50;;;;;;;14.00;79.94;101994.78;5074939;28;20033;-62
2021/06/24 03:29:03;;;;;;;26.10;12.52;;;;;;;13.97;80.20;102000.09;5081586;28;20032;-63
2021/06/24 03:31:29;;;;;;;26.25;12.30;;;;;;;13.97;80.15;101997.44;5074545;28;20036;-62
2021/06/24 03:33:54;;;;;;;27.80;13.20;;;;;;;13.99;81.41;101996.53;5075001;28;20028;-62
2021/06/24 03:36:20;;;;;;;25.17;12.55;;;;;;;13.97;80.58;101997.44;5074442;28;20379;-65
2021/06/24 03:38:46;;;;;;;26.13;13.05;;;;;;;13.94;80.36;101990.31;5074746;28;20405;-64
2021/06/24 03:41:13;;;;;;;25.38;13.43;;;;;;;13.94;81.98;102001.81;5074422;28;20111;-67
2021/06/24 03:43:39;;;;;;;27.83;13.23;;;;;;;13.94;81.42;102000.94;5074146;28;20025;-65
2021/06/24 03:46:05;;;;;;;25.83;13.45;;;;;;;13.88;82.20;102004.44;5074140;28;20052;-68
2021/06/24 03:48:30;;;;;;;26.58;13.30;;;;;;;13.88;81.94;102001.78;5074518;28;20037;-66
2021/06/24 03:50:55;;;;;;;26.45;13.57;;;;;;;13.89;81.57;102002.66;5074447;28;20028;-67
2021/06/24 03:53:21;;;;;;;26.30;13.52;;;;;;;13.87;81.80;101996.44;5074542;28;20097;-68
2021/06/24 03:55:46;;;;;;;27.30;13.43;;;;;;;13.85;80.65;101998.19;5074653;28;20533;-68
2021/06/24 03:58:14;;;;;;;30.67;14.23;;;;;;;13.86;80.77;102000.88;5074048;28;20078;-69
2021/06/24 04:00:44;;;;;;;28.42;13.55;;;;;;;13.80;80.87;101995.50;5073861;28;20527;-68
2021/06/24 04:03:11;;;;;;;26.02;13.55;;;;;;;13.81;81.14;102004.38;5074162;28;20472;-67
2021/06/24 04:05:37;;;;;;;24.83;13.60;;;;;;;13.78;81.05;101997.25;5073982;28;20078;-67
2021/06/24 04:08:05;;;;;;;25.77;13.60;;;;;;;13.84;80.89;102007.06;5073822;28;20024;-68
2021/06/24 04:10:31;;;;;;;27.67;13.55;;;;;;;13.86;80.10;102007.94;5074124;28;20104;-67
2021/06/24 04:12:56;;;;;;;26.05;12.95;;;;;;;13.78;80.44;102002.56;5069683;28;20115;-65
2021/06/24 04:15:23;;;;;;;27.15;13.77;;;;;;;13.72;80.50;101999.88;5073598;28;20107;-67
2021/06/24 04:17:49;;;;;;;26.35;13.13;;;;;;;13.75;80.89;101990.13;5073916;28;20471;-68
2021/06/24 04:20:15;;;;;;;25.60;12.65;;;;;;;13.76;80.34;101989.28;5073756;28;20450;-63
2021/06/24 04:22:41;;;;;;;24.88;13.02;;;;;;;13.77;80.48;101996.38;5073622;28;20071;-67
2021/06/24 04:25:08;;;;;;;26.40;12.88;;;;;;;13.78;80.16;101994.59;5073731;28;20476;-64
2021/06/24 04:27:34;;;;;;;25.02;12.85;;;;;;;13.84;79.91;101984.03;5073514;28;20028;-68
2021/06/24 04:29:59;;;;;;;26.58;13.07;;;;;;;13.85;80.58;101999.09;5073351;28;20025;-67
2021/06/24 04:32:24;;;;;;;26.30;12.82;;;;;;;13.91;79.93;101991.16;5073518;28;20025;-67
2021/06/24 04:34:50;;;;;;;24.90;12.52;;;;;;;13.89;80.01;101990.28;5073363;28;20016;-67
2021/06/24 04:37:15;;;;;;;26.83;13.07;;;;;;;13.91;79.80;101988.50;5073195;28;20028;-68
2021/06/24 04:39:40;;;;;;;25.17;12.80;;;;;;;13.93;79.87;101991.19;5073362;28;20024;-68
2021/06/24 04:42:06;;;;;;;25.02;12.70;;;;;;;13.97;80.12;101981.47;5073197;28;20032;-68
2021/06/24 04:44:31;;;;;;;24.80;12.60;;;;;;;13.97;79.90;101982.38;5072989;28;20051;-68
2021/06/24 04:46:57;;;;;;;26.33;12.88;;;;;;;14.00;79.78;101978.84;5073645;28;20463;-68
2021/06/24 04:49:22;;;;;;;28.88;13.88;;;;;;;13.99;80.09;101980.59;5073175;28;20391;-68
2021/06/24 04:51:47;;;;;;;25.92;13.20;;;;;;;14.05;80.28;101983.31;5072643;28;20082;-66
2021/06/24 04:54:13;;;;;;;25.70;13.15;;;;;;;14.10;80.21;101978.03;5072604;28;20027;-63
2021/06/24 04:56:38;;;;;;;24.42;13.25;;;;;;;14.17;80.41;101978.97;5073132;28;20024;-62
2021/06/24 04:59:04;;;;;;;27.10;13.75;;;;;;;14.22;79.15;101980.78;5073058;28;20401;-62
2021/06/24 05:01:30;;;;;;;27.73;13.32;;;;;;;14.25;78.39;101977.25;5072812;28;20028;-62
2021/06/24 05:03:55;;;;;;;26.48;13.13;;;;;;;14.32;78.21;101980.84;5072826;28;20095;-62
2021/06/24 05:06:20;;;;;;;26.50;13.02;;;;;;;14.34;78.81;101987.06;5073232;28;20016;-62
2021/06/24 05:08:46;;;;;;;27.27;13.40;;;;;;;14.40;78.88;101984.44;5072978;28;20016;-62
2021/06/24 05:11:11;;;;;;;28.35;13.75;;;;;;;14.47;77.65;101988.91;5072633;28;20029;-63
2021/06/24 05:13:37;;;;;;;28.67;13.93;;;;;;;14.51;78.25;101980.09;5072829;28;20074;-62
2021/06/24 05:16:05;;;;;;;26.58;13.57;;;;;;;14.57;77.32;101995.19;5072857;28;20024;-62
2021/06/24 05:18:31;;;;;;;28.42;13.98;;;;;;;14.62;77.00;101985.50;5068895;28;20052;-62
2021/06/24 05:20:59;;;;;;;25.30;13.65;;;;;;;14.64;76.86;101976.63;5072579;28;20462;-62
2021/06/24 05:23:24;;;;;;;27.23;14.55;;;;;;;14.59;76.90;101983.69;5072646;28;20119;-62
2021/06/24 05:25:50;;;;;;;25.40;14.43;;;;;;;14.66;76.93;101983.75;5072559;28;20378;-62
2021/06/24 05:28:16;;;;;;;30.20;14.15;;;;;;;14.71;76.54;101982.00;5068043;28;20039;-62
2021/06/24 05:30:41;;;;;;;36.70;14.60;;;;;;;14.74;76.80;101977.59;5069073;28;20032;-61
2021/06/24 05:33:06;;;;;;;25.95;13.57;;;;;;;14.82;75.59;101975.88;5070684;28;20140;-62
2021/06/24 05:35:32;;;;;;;27.55;13.90;;;;;;;14.74;76.71;101974.94;5070995;28;20020;-61
2021/06/24 05:37:58;;;;;;;26.48;13.88;;;;;;;14.68;76.04;101981.97;5070581;28;20428;-62
2021/06/24 05:40:23;;;;;;;24.45;13.85;;;;;;;14.57;76.15;101979.22;5071084;28;20025;-62
2021/06/24 05:42:49;;;;;;;27.80;14.65;;;;;;;14.57;76.98;101974.78;5070299;28;20017;-62
2021/06/24 05:45:15;;;;;;;25.80;13.77;;;;;;;14.59;76.49;101973.06;5070699;28;20044;-63
2021/06/24 05:47:40;;;;;;;27.85;14.50;;;;;;;14.57;77.14;101965.94;5070872;28;20063;-62
2021/06/24 05:50:06;;;;;;;28.00;14.60;;;;;;;14.61;76.70;101976.63;5070419;28;20073;-63
2021/06/24 05:52:32;;;;;;;29.73;14.70;;;;;;;14.63;76.58;101979.28;5070148;28;20044;-62
2021/06/24 05:54:57;;;;;;;27.80;14.88;;;;;;;14.57;77.49;101974.78;5070649;28;20025;-62
2021/06/24 05:57:23;;;;;;;29.05;15.00;;;;;;;14.63;76.56;101969.56;5070677;28;20028;-61
2021/06/24 05:59:48;;;;;;;29.95;15.02;;;;;;;14.71;76.62;101963.34;5069104;28;20032;-62
2021/06/24 06:02:14;;;;;;;28.27;15.23;;;;;;;14.87;77.04;101967.91;5070304;28;20025;-62
2021/06/24 06:04:39;;;;;;;34.17;15.15;;;;;;;14.98;76.19;101968.84;5073550;28;20119;-64
2021/06/24 06:07:05;;;;;;;39.40;16.00;;;;;;;15.04;75.59;101969.72;5074606;28;20030;-62
2021/06/24 06:09:30;;;;;;;30.02;15.20;;;;;;;15.10;75.97;101972.41;5075124;28;20032;-63
2021/06/24 06:11:55;;;;;;;27.73;14.23;;;;;;;15.14;74.68;101967.13;5073946;28;20028;-62
2021/06/24 06:14:21;;;;;;;25.58;13.85;;;;;;;15.08;74.88;101976.84;5074742;28;20029;-64
2021/06/24 06:16:46;;;;;;;27.35;14.68;;;;;;;15.11;75.65;101976.84;5075026;28;20376;-63
2021/06/24 06:19:13;;;;;;;28.45;15.13;;;;;;;15.20;74.69;101982.19;5074305;28;20020;-61
2021/06/24 06:21:39;;;;;;;28.10;14.70;;;;;;;15.32;74.28;101971.59;5071743;28;20028;-62
2021/06/24 06:24:05;;;;;;;26.13;14.63;;;;;;;15.41;73.58;101969.84;5073534;28;20336;-62
2021/06/24 06:26:31;;;;;;;27.80;14.50;;;;;;;15.53;73.53;101967.19;5074572;28;20387;-62
2021/06/24 06:29:02;;;;;;;26.73;14.60;;;;;;;15.66;72.26;101954.78;5074167;28;20111;-63
2021/06/24 06:31:29;;;;;;;27.20;14.60;;;;;;;15.65;72.60;101966.31;5074412;28;20056;-62
2021/06/24 06:33:54;;;;;;;25.85;13.75;;;;;;;15.79;72.24;101966.38;5073363;28;20032;-63
2021/06/24 06:36:19;;;;;;;27.58;14.05;;;;;;;15.83;70.91;101960.16;5074014;28;20020;-64
2021/06/24 06:38:44;;;;;;;25.98;14.35;;;;;;;15.86;71.32;101968.16;5074098;28;20063;-62
2021/06/24 06:41:10;;;;;;;27.73;15.10;;;;;;;15.89;71.53;101967.25;5074059;28;20059;-63
2021/06/24 06:43:36;;;;;;;27.92;14.90;;;;;;;15.94;71.25;101961.03;5073923;28;20024;-63
2021/06/24 06:46:02;;;;;;;27.33;15.07;;;;;;;16.05;71.90;101961.03;5073396;28;20053;-62
2021/06/24 06:48:27;;;;;;;29.15;14.45;;;;;;;16.11;70.16;101957.47;5073463;28;20036;-62
2021/06/24 06:50:53;;;;;;;27.63;14.45;;;;;;;16.19;70.38;101959.25;5074011;28;20030;-62
2021/06/24 06:53:18;;;;;;;27.23;15.35;;;;;;;16.32;70.33;101954.75;5071964;28;20024;-67
2021/06/24 06:55:44;;;;;;;27.60;16.02;;;;;;;16.35;70.07;101952.09;5073851;28;20052;-62
2021/06/24 06:58:09;;;;;;;27.10;14.80;;;;;;;16.42;69.05;101955.63;5074310;28;20016;-62
2021/06/24 07:00:35;;;;;;;28.15;14.70;;;;;;;16.35;68.74;101952.09;5074709;28;20052;-62
2021/06/24 07:03:01;;;;;;;27.55;14.30;;;;;;;16.34;69.14;101950.31;5074584;28;20074;-65
2021/06/24 07:05:26;;;;;;;26.88;14.23;;;;;;;16.43;69.45;101953.88;5074745;28;20103;-65
2021/06/24 07:07:52;;;;;;;27.00;14.00;;;;;;;16.55;69.27;101954.69;5074627;28;20062;-65
2021/06/24 07:10:18;;;;;;;26.83;14.48;;;;;;;16.51;68.81;101957.38;5075033;28;20028;-66
2021/06/24 07:12:44;;;;;;;28.58;14.93;;;;;;;16.55;68.75;101956.50;5074632;28;20039;-66
2021/06/24 07:15:10;;;;;;;27.70;14.48;;;;;;;16.56;69.21;101947.59;5073862;28;20364;-65
2021/06/24 07:17:36;;;;;;;29.38;15.05;;;;;;;16.51;68.02;101954.72;5074945;28;20035;-65
2021/06/24 07:20:03;;;;;;;27.65;14.73;;;;;;;16.34;70.13;101950.31;5074653;28;20104;-66
2021/06/24 07:22:28;;;;;;;27.75;15.02;;;;;;;16.25;70.34;101955.69;5074727;28;20028;-67
2021/06/24 07:24:53;;;;;;;28.10;16.23;;;;;;;16.17;71.14;101963.69;5074972;28;20452;-64
2021/06/24 07:27:19;;;;;;;29.45;16.65;;;;;;;16.14;71.68;101963.69;5074866;28;20382;-66
2021/06/24 07:29:44;;;;;;;27.98;15.80;;;;;;;16.11;70.28;101962.81;5074623;28;20480;-65
2021/06/24 07:32:09;;;;;;;26.58;14.80;;;;;;;16.03;70.84;101966.38;5074805;28;20028;-66
2021/06/24 07:34:35;;;;;;;26.63;15.15;;;;;;;15.95;71.29;101960.13;5074476;28;20028;-66
2021/06/24 07:37:00;;;;;;;28.33;15.85;;;;;;;15.91;71.40;101971.69;5074286;28;20483;-66
2021/06/24 07:39:26;;;;;;;28.15;15.93;;;;;;;15.96;72.31;101964.59;5074670;28;20024;-65
2021/06/24 07:41:51;;;;;;;29.13;15.95;;;;;;;15.92;70.56;101968.16;5074681;28;20078;-65
2021/06/24 07:44:17;;;;;;;28.38;15.77;;;;;;;15.95;71.89;101973.47;5074240;28;20032;-66
2021/06/24 07:46:42;;;;;;;28.45;16.52;;;;;;;16.00;71.46;101971.72;5074613;28;20024;-66
2021/06/24 07:49:07;;;;;;;28.48;16.58;;;;;;;15.94;71.97;101977.03;5074540;28;20024;-66
2021/06/24 07:51:33;;;;;;;30.83;16.55;;;;;;;15.95;71.72;101970.81;5074061;28;20460;-65
2021/06/24 07:53:58;;;;;;;29.00;16.20;;;;;;;15.95;71.92;101977.94;5074577;28;20348;-66
2021/06/24 07:56:24;;;;;;;29.13;16.00;;;;;;;15.93;71.61;101975.28;5074304;28;20517;-65
2021/06/24 07:58:52;;;;;;;30.05;15.63;;;;;;;15.89;71.37;101968.16;5074254;28;20133;-66
2021/06/24 08:01:17;;;;;;;26.75;14.85;;;;;;;15.86;71.11;101970.81;5074176;28;20136;-66
2021/06/24 08:03:43;;;;;;;27.25;15.00;;;;;;;15.94;70.59;101958.34;5073979;28;20107;-66
2021/06/24 08:06:08;;;;;;;26.52;14.57;;;;;;;15.99;69.91;101961.03;5073953;28;20031;-65
2021/06/24 08:08:34;;;;;;;27.00;14.77;;;;;;;16.06;70.23;101957.47;5073831;28;20075;-66
2021/06/24 08:10:59;;;;;;;30.17;15.40;;;;;;;16.14;70.43;101960.13;5073690;28;20035;-66
2021/06/24 08:13:26;;;;;;;26.42;15.13;;;;;;;16.30;69.49;101964.56;5074201;28;20074;-64
2021/06/24 08:15:52;;;;;;;28.15;14.68;;;;;;;16.38;68.08;101965.44;5073728;28;20020;-65
2021/06/24 08:18:19;;;;;;;26.08;14.25;;;;;;;16.44;67.78;101963.63;5073546;28;20024;-66
2021/06/24 08:20:44;;;;;;;25.23;13.52;;;;;;;16.47;67.58;101971.63;5073940;28;20360;-62
2021/06/24 08:23:10;;;;;;;28.15;14.02;;;;;;;16.51;67.13;101974.31;5073271;28;20031;-62
2021/06/24 08:25:35;;;;;;;25.83;13.82;;;;;;;16.50;65.91;101972.53;5073618;28;20563;-62
2021/06/24 08:28:00;;;;;;;25.50;13.55;;;;;;;16.52;66.94;101975.19;5071609;28;20455;-62
2021/06/24 08:30:26;;;;;;;26.40;12.88;;;;;;;16.43;65.33;101968.09;5073353;28;20048;-63
2021/06/24 08:32:51;;;;;;;24.30;12.57;;;;;;;16.47;65.73;101972.53;5073484;28;20414;-62
2021/06/24 08:35:17;;;;;;;26.52;13.15;;;;;;;16.47;65.99;101971.63;5071384;28;20032;-62
2021/06/24 08:37:43;;;;;;;25.73;13.43;;;;;;;16.53;65.71;101974.31;5072716;28;20028;-62
2021/06/24 08:40:10;;;;;;;25.90;13.73;;;;;;;16.59;65.65;101970.72;5072994;28;20467;-62
2021/06/24 08:42:36;;;;;;;27.10;13.30;;;;;;;16.58;65.46;101974.28;5069300;28;20058;-62
2021/06/24 08:45:04;;;;;;;24.67;13.80;;;;;;;16.46;65.83;101978.75;5073117;28;20041;-62
2021/06/24 08:47:30;;;;;;;25.48;13.85;;;;;;;16.41;65.98;101976.97;5073337;28;20031;-62
2021/06/24 08:49:57;;;;;;;25.40;13.25;;;;;;;16.32;66.33;101975.22;5073396;28;20016;-62
2021/06/24 08:52:23;;;;;;;25.17;13.38;;;;;;;16.26;66.01;101978.78;5068821;28;20092;-65
2021/06/24 08:54:48;;;;;;;24.52;12.63;;;;;;;16.24;66.56;101985.00;5071446;28;20064;-65
2021/06/24 08:57:15;;;;;;;25.20;12.73;;;;;;;16.15;65.95;101975.22;5070298;28;20017;-66
2021/06/24 08:59:40;;;;;;;26.02;12.15;;;;;;;16.16;66.69;101982.34;5071490;28;20028;-66
2021/06/24 09:02:10;;;;;;;25.55;12.80;;;;;;;16.20;66.89;101992.13;5071807;28;20028;-64
2021/06/24 09:04:35;;;;;;;23.25;12.40;;;;;;;16.28;66.47;101987.69;5071438;28;20033;-64
2021/06/24 09:07:07;;;;;;;25.15;13.10;;;;;;;16.42;66.74;101992.97;5070283;28;20024;-68
2021/06/24 09:09:33;;;;;;;25.75;12.60;;;;;;;16.44;66.25;101984.97;5071127;28;20040;-66
2021/06/24 09:12:09;;;;;;;25.85;13.73;;;;;;;16.41;65.69;101993.91;5071899;28;20070;-65
2021/06/24 09:14:59;;;;;;;27.00;13.27;;;;;;;16.45;65.67;102000.09;5068025;28;20526;-65
2021/06/24 09:17:42;;;;;;;24.08;12.95;;;;;;;16.47;65.77;101998.31;5070824;28;20368;-65
2021/06/24 09:20:22;;;;;;;23.95;12.05;;;;;;;16.55;66.25;101986.72;5070848;28;20390;-65
2021/06/24 09:23:09;;;;;;;25.67;12.80;;;;;;;16.61;65.76;101990.28;5071183;28;20032;-65
2021/06/24 09:25:40;;;;;;;24.90;12.77;;;;;;;16.56;64.25;101999.19;5067673;28;20032;-65
2021/06/24 09:28:06;;;;;;;25.73;13.18;;;;;;;16.52;65.80;102005.41;5070786;28;20486;-65
2021/06/24 09:30:35;;;;;;;26.48;12.95;;;;;;;16.43;65.54;101996.56;5071412;28;20040;-65
2021/06/24 09:33:12;;;;;;;25.08;13.20;;;;;;;16.51;64.76;102002.75;5070770;28;20030;-65
2021/06/24 09:35:39;;;;;;;25.25;12.20;;;;;;;16.59;65.58;102003.63;5068674;28;20024;-65
2021/06/24 09:38:10;;;;;;;25.33;12.40;;;;;;;16.76;64.37;102000.94;5071166;28;20112;-65
2021/06/24 09:40:56;;;;;;;25.93;13.23;;;;;;;16.93;64.78;102000.88;5067091;28;20028;-65
2021/06/24 09:43:27;;;;;;;26.17;13.60;;;;;;;16.95;63.88;102000.88;5070310;28;20766;-65
2021/06/24 09:46:12;;;;;;;25.88;14.10;;;;;;;17.10;63.54;101999.94;5072315;28;20048;-65
2021/06/24 09:48:43;;;;;;;25.48;12.35;;;;;;;17.13;63.45;102002.59;5069055;28;20036;-65
2021/06/24 09:51:21;;;;;;;27.02;12.77;;;;;;;17.15;63.42;101998.13;5068783;28;20447;-65
2021/06/24 09:54:06;;;;;;;24.83;12.20;;;;;;;17.26;62.80;102001.66;5069648;28;20036;-63
2021/06/24 09:56:34;;;;;;;26.83;12.27;;;;;;;17.43;63.15;101998.88;5072334;28;20028;-63
2021/06/24 09:59:04;;;;;;;27.38;12.52;;;;;;;17.39;62.61;102002.47;5072465;28;20024;-63
2021/06/24 10:01:38;;;;;;;24.13;12.00;;;;;;;17.53;61.90;101995.25;5072469;28;20458;-63
2021/06/24 10:04:15;;;;;;;25.33;12.25;;;;;;;17.62;62.48;101999.66;5072109;28;20530;-62
2021/06/24 10:06:41;;;;;;;23.55;12.40;;;;;;;17.76;61.44;101994.19;5068930;28;20028;-63
2021/06/24 10:09:07;;;;;;;35.22;13.45;;;;;;;17.85;61.11;101995.91;5072402;28;20021;-62
2021/06/24 10:11:32;;;;;;;25.90;12.73;;;;;;;17.78;60.97;101993.28;5072190;28;20090;-63
2021/06/24 10:13:57;;;;;;;25.52;12.73;;;;;;;17.93;60.74;101992.31;5072047;28;20059;-63
2021/06/24 10:16:26;;;;;;;26.17;12.32;;;;;;;17.87;60.21;102000.34;5071973;28;20029;-66
2021/06/24 10:18:52;;;;;;;24.60;12.40;;;;;;;18.06;61.09;101994.91;5072321;28;20032;-67
2021/06/24 10:21:18;;;;;;;25.27;12.63;;;;;;;18.27;61.16;101993.81;5072050;28;20043;-66
2021/06/24 10:23:50;;;;;;;25.63;12.18;;;;;;;18.52;60.09;101993.56;5072303;28;20438;-67
2021/06/24 10:26:15;;;;;;;23.10;11.80;;;;;;;18.62;58.97;101996.13;5072110;28;20483;-67
2021/06/24 10:28:41;;;;;;;23.98;12.15;;;;;;;18.72;57.59;101991.53;5072196;28;20067;-67
2021/06/24 10:31:06;;;;;;;24.52;11.90;;;;;;;18.90;57.87;101997.63;5071710;28;20462;-64
2021/06/24 10:33:55;;;;;;;24.10;12.38;;;;;;;19.10;57.99;101998.25;5072308;28;20498;-67
2021/06/24 10:36:21;;;;;;;24.42;13.02;;;;;;;19.00;55.98;101991.25;5069932;28;20025;-67
2021/06/24 10:38:51;;;;;;;24.25;12.50;;;;;;;19.09;56.62;102000.94;5071931;28;20032;-66
2021/06/24 10:41:16;;;;;;;24.52;11.65;;;;;;;19.61;55.37;101988.63;5071671;28;20028;-67
2021/06/24 10:43:47;;;;;;;23.52;11.82;;;;;;;20.01;55.85;101994.25;5072129;28;20024;-65
2021/06/24 10:46:17;;;;;;;24.00;12.40;;;;;;;20.27;54.00;101987.56;5071561;28;20066;-66
2021/06/24 10:48:42;;;;;;;24.00;11.70;;;;;;;20.18;52.92;101988.63;5072023;28;20060;-67
2021/06/24 10:51:10;;;;;;;23.88;12.18;;;;;;;20.18;53.48;101988.63;5073554;28;20177;-67
2021/06/24 10:53:46;;;;;;;23.95;12.23;;;;;;;20.25;52.69;101985.81;5071318;28;20029;-67
2021/06/24 10:56:32;;;;;;;27.33;12.93;;;;;;;20.42;53.28;101981.00;5072305;28;20024;-67
2021/06/24 10:58:59;;;;;;;23.98;12.43;;;;;;;20.44;52.87;101976.47;5075082;28;20029;-67
2021/06/24 11:01:45;;;;;;;24.15;12.70;;;;;;;20.63;53.31;101978.81;5075229;28;20081;-67
2021/06/24 11:04:30;;;;;;;24.50;13.07;;;;;;;20.83;53.60;101978.47;5072582;28;20043;-68
2021/06/24 11:06:57;;;;;;;24.60;13.52;;;;;;;21.05;50.98;101968.13;5073557;28;20024;-67
2021/06/24 11:09:23;;;;;;;23.10;12.15;;;;;;;21.24;50.33;101968.59;5074038;28;20033;-66